createdAt,value
2019-06-26T00:01:17.071Z,8.40
2019-06-26T00:06:10.443Z,9.60
2019-06-26T00:11:04.076Z,10.00
2019-06-26T00:15:58.434Z,9.70
2019-06-26T00:20:51.877Z,12.40
2019-06-26T00:25:45.341Z,10.10
2019-06-26T00:30:38.994Z,10.13
2019-06-26T00:35:32.342Z,9.43
2019-06-26T00:40:25.681Z,9.40
2019-06-26T00:45:19.080Z,9.93
2019-06-26T00:50:13.938Z,10.13
2019-06-26T00:55:07.467Z,11.97
2019-06-26T01:00:07.931Z,14.33
2019-06-26T01:05:03.291Z,14.07
2019-06-26T01:09:56.905Z,14.60
2019-06-26T01:14:50.472Z,16.63
2019-06-26T01:19:45.637Z,15.03
2019-06-26T01:24:39.101Z,14.77
2019-06-26T01:29:32.794Z,14.63
2019-06-26T01:34:26.233Z,15.40
2019-06-26T01:39:19.760Z,13.80
2019-06-26T01:44:15.226Z,12.80
2019-06-26T01:49:08.561Z,13.07
2019-06-26T01:54:02.237Z,14.87
2019-06-26T01:58:55.836Z,16.00
2019-06-26T02:03:49.184Z,16.90
2019-06-26T02:08:42.685Z,16.57
2019-06-26T02:13:36.151Z,19.17
2019-06-26T02:18:49.420Z,17.70
2019-06-26T02:23:43.066Z,17.93
2019-06-26T02:28:36.632Z,20.00
2019-06-26T02:33:30.119Z,19.13
2019-06-26T02:38:23.770Z,22.10
2019-06-26T02:43:17.335Z,22.30
2019-06-26T02:48:10.775Z,21.23
2019-06-26T02:53:04.343Z,22.63
2019-06-26T02:57:57.970Z,22.33
2019-06-26T03:02:51.595Z,21.57
2019-06-26T03:07:45.001Z,21.00
2019-06-26T03:12:38.557Z,21.67
2019-06-26T03:17:32.189Z,22.10
2019-06-26T03:22:25.674Z,23.27
2019-06-26T03:27:19.333Z,23.23
2019-06-26T03:32:12.888Z,23.40
2019-06-26T03:37:06.403Z,24.90
2019-06-26T03:41:59.804Z,24.33
2019-06-26T03:46:53.217Z,25.70
2019-06-26T03:51:49.467Z,24.37
2019-06-26T03:56:42.887Z,23.53
2019-06-26T04:01:36.462Z,24.07
2019-06-26T04:06:29.840Z,22.40
2019-06-26T04:11:23.047Z,22.37
2019-06-26T04:16:16.438Z,24.37
2019-06-26T04:21:09.991Z,21.40
2019-06-26T04:26:03.657Z,21.43
2019-06-26T04:30:57.155Z,23.17
2019-06-26T04:35:50.643Z,21.27
2019-06-26T04:40:44.092Z,20.83
2019-06-26T04:45:38.895Z,21.60
2019-06-26T04:50:34.192Z,20.33
2019-06-26T04:55:27.808Z,20.00
2019-06-26T05:00:22.058Z,20.90
2019-06-26T05:05:16.130Z,20.43
2019-06-26T05:10:10.365Z,20.87
2019-06-26T05:15:04.558Z,18.43
2019-06-26T05:20:00.765Z,19.47
2019-06-26T05:24:55.240Z,19.63
2019-06-26T05:29:48.713Z,21.57
2019-06-26T05:34:42.101Z,19.13
2019-06-26T05:39:35.614Z,19.50
2019-06-26T05:44:29.075Z,17.63
2019-06-26T05:49:22.560Z,18.60
2019-06-26T05:54:15.887Z,21.00
2019-06-26T05:59:09.296Z,17.50
2019-06-26T06:04:02.745Z,19.82
2019-06-26T06:08:56.323Z,18.67
2019-06-26T06:13:49.695Z,16.90
2019-06-26T06:18:43.521Z,18.70
2019-06-26T06:23:38.219Z,17.75
2019-06-26T06:28:31.942Z,19.60
2019-06-26T06:33:25.380Z,17.82
2019-06-26T06:38:18.873Z,17.40
2019-06-26T06:43:13.348Z,17.75
2019-06-26T06:48:06.829Z,14.85
2019-06-26T06:53:00.226Z,14.70
2019-06-26T06:57:54.481Z,13.95
2019-06-26T07:02:47.726Z,11.10
2019-06-26T07:07:41.199Z,11.70
2019-06-26T07:12:34.590Z,12.73
2019-06-26T07:17:29.818Z,10.35
2019-06-26T07:22:23.311Z,11.95
2019-06-26T07:27:16.822Z,12.37
2019-06-26T07:32:10.231Z,11.15
2019-06-26T07:37:04.020Z,12.13
2019-06-26T07:41:57.287Z,12.90
2019-06-26T07:46:51.805Z,13.18
2019-06-26T07:51:46.242Z,11.55
2019-06-26T07:56:39.894Z,11.60
2019-06-26T08:01:33.462Z,10.05
2019-06-26T08:06:26.747Z,9.35
2019-06-26T08:11:20.588Z,6.83
2019-06-26T08:16:14.521Z,7.87
2019-06-26T08:21:12.470Z,9.30
2019-06-26T08:26:04.251Z,9.03
2019-06-26T08:30:58.362Z,9.85
2019-06-26T08:35:52.350Z,7.90
2019-06-26T08:40:46.253Z,9.95
2019-06-26T08:45:40.337Z,10.03
2019-06-26T08:50:34.381Z,8.23
2019-06-26T08:55:28.113Z,9.83
2019-06-26T09:00:22.323Z,7.97
2019-06-26T09:05:16.401Z,7.55
2019-06-26T09:10:11.416Z,8.00
2019-06-26T09:15:05.888Z,9.23
2019-06-26T09:19:59.880Z,10.78
2019-06-26T09:24:53.929Z,9.15
2019-06-26T09:29:47.836Z,10.40
2019-06-26T09:34:42.411Z,8.65
2019-06-26T09:39:37.962Z,7.70
2019-06-26T09:44:31.898Z,8.45
2019-06-26T09:49:25.698Z,8.45
2019-06-26T09:54:19.130Z,8.70
2019-06-26T09:59:12.609Z,9.68
2019-06-26T10:04:06.035Z,10.32
2019-06-26T10:08:59.528Z,8.35
2019-06-26T10:13:53.508Z,8.97
2019-06-26T10:18:46.766Z,8.67
2019-06-26T10:23:40.346Z,8.43
2019-06-26T10:28:35.607Z,9.03
2019-06-26T10:33:29.145Z,8.30
2019-06-26T10:38:22.735Z,9.27
2019-06-26T10:43:16.384Z,8.90
2019-06-26T10:48:10.831Z,9.37
2019-06-26T10:53:04.126Z,11.03
2019-06-26T10:57:57.550Z,9.87
2019-06-26T11:02:50.997Z,12.17
2019-06-26T11:07:44.428Z,13.87
2019-06-26T11:12:37.789Z,15.93
2019-06-26T11:17:31.291Z,14.67
2019-06-26T11:22:25.025Z,15.00
2019-06-26T11:27:18.554Z,13.73
2019-06-26T11:32:12.144Z,14.47
2019-06-26T11:37:05.515Z,13.53
2019-06-26T11:42:00.658Z,23.13
2019-06-26T11:46:54.138Z,15.53
2019-06-26T11:51:47.606Z,15.10
2019-06-26T11:56:42.864Z,12.83
2019-06-26T12:01:36.344Z,14.37
2019-06-26T12:06:29.747Z,12.87
2019-06-26T12:11:23.161Z,15.33
2019-06-26T12:16:16.518Z,16.83
2019-06-26T12:21:09.894Z,17.70
2019-06-26T12:26:03.179Z,17.67
2019-06-26T12:30:56.612Z,17.10
2019-06-26T12:35:49.886Z,16.20
2019-06-26T12:40:43.459Z,17.87
2019-06-26T12:45:36.973Z,19.57
2019-06-26T12:50:36.033Z,16.87
2019-06-26T12:55:26.077Z,14.13
2019-06-26T13:00:20.462Z,15.23
2019-06-26T13:05:14.130Z,13.60
2019-06-26T13:10:08.452Z,11.60
2019-06-26T13:15:01.836Z,12.33
2019-06-26T13:19:55.450Z,13.67
2019-06-26T13:24:48.871Z,14.57
2019-06-26T13:29:42.362Z,12.53
2019-06-26T13:34:35.724Z,14.27
2019-06-26T13:39:29.241Z,13.43
2019-06-26T13:44:22.711Z,12.77
2019-06-26T13:49:16.732Z,12.70
2019-06-26T13:54:10.890Z,12.90
2019-06-26T13:59:07.368Z,12.03
2019-06-26T14:04:00.027Z,10.17
2019-06-26T14:08:53.728Z,10.93
2019-06-26T14:13:47.396Z,11.93
2019-06-26T14:18:40.980Z,9.83
2019-06-26T14:23:37.774Z,8.57
2019-06-26T14:28:29.930Z,10.03
2019-06-26T14:33:23.356Z,8.43
2019-06-26T14:38:16.751Z,6.83
2019-06-26T14:43:10.269Z,8.67
2019-06-26T14:48:05.028Z,9.60
2019-06-26T14:53:00.161Z,7.30
2019-06-26T14:57:55.783Z,8.23
2019-06-26T15:02:49.269Z,8.73
2019-06-26T15:07:42.823Z,7.57
2019-06-26T15:12:36.463Z,8.20
2019-06-26T15:17:29.928Z,8.23
2019-06-26T15:22:23.191Z,9.23
2019-06-26T15:27:16.723Z,8.57
2019-06-26T15:32:09.959Z,9.10
2019-06-26T15:37:03.421Z,10.33
2019-06-26T15:41:56.914Z,9.97
2019-06-26T15:46:50.496Z,10.17
2019-06-26T15:51:43.960Z,9.63
2019-06-26T15:56:37.625Z,10.20
2019-06-26T16:01:32.681Z,9.67
2019-06-26T16:06:26.278Z,8.90
2019-06-26T16:11:19.723Z,7.53
2019-06-26T16:16:13.343Z,8.63
2019-06-26T16:21:07.101Z,7.40
2019-06-26T16:26:00.680Z,9.73
2019-06-26T16:30:54.199Z,12.27
2019-06-26T16:35:49.570Z,11.37
2019-06-26T16:40:43.157Z,14.90
2019-06-26T16:45:36.661Z,13.00
2019-06-26T16:50:30.195Z,12.73
2019-06-26T16:55:23.704Z,12.43
2019-06-26T17:00:18.014Z,12.10
2019-06-26T17:05:13.020Z,12.17
2019-06-26T17:10:07.725Z,12.60
2019-06-26T17:15:04.104Z,10.53
2019-06-26T17:19:56.970Z,9.80
2019-06-26T17:24:50.343Z,9.63
2019-06-26T17:29:43.931Z,10.10
2019-06-26T17:34:43.633Z,9.93
2019-06-26T17:39:37.115Z,9.53
2019-06-26T17:44:30.500Z,10.40
2019-06-26T17:49:23.860Z,10.47
2019-06-26T17:54:17.242Z,8.80
2019-06-26T17:59:10.512Z,10.20
2019-06-26T18:04:06.050Z,10.60
2019-06-26T18:08:59.530Z,9.83
2019-06-26T18:13:53.902Z,9.80
2019-06-26T18:18:47.411Z,9.70
2019-06-26T18:23:40.935Z,9.80
2019-06-26T18:28:35.518Z,10.07
2019-06-26T18:33:28.978Z,9.13
2019-06-26T18:38:22.927Z,9.20
2019-06-26T18:43:19.287Z,8.77
2019-06-26T18:48:12.938Z,9.10
2019-06-26T18:53:06.502Z,9.57
2019-06-26T18:57:59.974Z,10.40
2019-06-26T19:02:53.661Z,10.10
2019-06-26T19:07:47.315Z,8.90
2019-06-26T19:12:40.915Z,9.20
2019-06-26T19:17:34.455Z,9.43
2019-06-26T19:22:28.075Z,10.23
2019-06-26T19:27:21.472Z,9.53
2019-06-26T19:32:15.064Z,9.20
2019-06-26T19:37:10.239Z,8.60
2019-06-26T19:42:03.910Z,9.57
2019-06-26T19:46:57.360Z,8.97
2019-06-26T19:51:50.993Z,8.13
2019-06-26T19:56:44.515Z,8.27
2019-06-26T20:01:38.063Z,7.30
2019-06-26T20:06:31.471Z,7.60
2019-06-26T20:11:24.921Z,7.87
2019-06-26T20:16:18.413Z,7.63
2019-06-26T20:21:13.318Z,8.07
2019-06-26T20:26:06.779Z,8.00
2019-06-26T20:31:00.364Z,8.10
2019-06-26T20:35:54.052Z,7.77
2019-06-26T20:40:47.538Z,7.73
2019-06-26T20:45:41.949Z,7.70
2019-06-26T20:50:35.524Z,7.73
2019-06-26T20:55:31.074Z,7.63
2019-06-26T21:00:24.488Z,7.40
2019-06-26T21:05:17.985Z,6.83
2019-06-26T21:10:12.504Z,6.70
2019-06-26T21:15:07.523Z,5.67
2019-06-26T21:20:00.982Z,5.57
2019-06-26T21:24:54.391Z,5.53
2019-06-26T21:29:48.055Z,5.90
2019-06-26T21:34:43.244Z,4.63
2019-06-26T21:39:36.977Z,4.80
2019-06-26T21:44:30.572Z,4.30
2019-06-26T21:49:24.112Z,4.67
2019-06-26T21:54:17.589Z,4.03
2019-06-26T21:59:11.176Z,3.53
2019-06-26T22:04:06.589Z,3.87
2019-06-26T22:09:01.823Z,3.93
2019-06-26T22:13:55.370Z,4.33
2019-06-26T22:18:49.172Z,3.33
2019-06-26T22:23:42.537Z,3.47
2019-06-26T22:28:36.182Z,3.60
2019-06-26T22:33:29.616Z,3.40
2019-06-26T22:38:23.142Z,2.90
2019-06-26T22:43:16.728Z,3.20
2019-06-26T22:48:10.314Z,2.73
2019-06-26T22:53:03.996Z,2.80
2019-06-26T22:57:57.369Z,3.33
2019-06-26T23:02:50.608Z,2.80
2019-06-26T23:07:44.193Z,2.57
2019-06-26T23:12:37.700Z,3.10
2019-06-26T23:17:31.081Z,2.83
2019-06-26T23:22:24.702Z,3.20
2019-06-26T23:27:19.226Z,2.50
2019-06-26T23:32:12.965Z,3.50
2019-06-26T23:37:06.338Z,2.60
2019-06-26T23:42:00.127Z,3.00
2019-06-26T23:46:53.695Z,2.97
2019-06-26T23:51:47.147Z,3.10
2019-06-26T23:56:41.076Z,2.80
